Greenville, Illinois
Current Conditions -  °F | °C
As of 6:55 PM on Monday 26 Jan 2015 (Local Time) from K3LF Reporting Station
Overcast Overcast  
Wind Chill: 25°   Ceiling: 3200
Heat Index: 32°   Visibility: 7mi
Dew Point: 28°   Wind: 8mph
Humidity: 87%   Direction: 190°S
Pressure: 29.9"   Gusts: NA
Location:  38.89°N, 89.41°W
Report Text: K3LF 270055Z AUTO 19007KT 7SM OVC032 00/M02 A2990 RMK AO2 T10011020
Loading
Personal Weather Stations






























Interactive Weather Map New forecast layout! Learn more

10-Day Weather Forecast

Advertisements
Track Severe Weather on mobile